Tomahawk, WI

9:38 AM CDT on May 20, 2018 (GMT -0500)
Tomahawk

Weather History for KTKV - January, 2012

Change the Weather History Date:

Tuesday, January 10, 2012

  Actual Average (WUND) Record (WUND)
Temperature  
Mean Temperature 29 °F -  
Max Temperature 44 °F - - (-1)
Min Temperature 14 °F - - (-1)
Degree Days  
Heating Degree Days 36    
Moisture  
Dew Point 23 °F    
Average Humidity 82    
Maximum Humidity 93    
Minimum Humidity 57    
Precipitation  
Precipitation 0.00 in - - ()
Sea Level Pressure  
Sea Level Pressure 29.81 in    
Wind  
Wind Speed 1 mph (South)    
Max Wind Speed 10 mph    
Max Gust Speed -    
Visibility 10 miles    
Events      
Averages and records for this station are not official NWS values.
T = Trace of Precipitation, MM = Missing Value Source: NWS Daily Summary

Daily Weather History Graph

Daily Weather History Graph

Search for Another Location

Airport or City:

Astronomy

Jan. 10, 2012 Rise Set
Actual Time 7:37 AM CST 4:35 PM CST
Civil Twilight 7:04 AM CST 5:09 PM CST
Nautical Twilight 6:27 AM CST 5:46 PM CST
Astronomical Twilight 5:51 AM CST 6:21 PM CST
Moon 6:34 PM CST (1/10) 8:10 AM CST (1/10)
Length of Visible Light 10h 04m
Length of Day
8h 57m
Full, 98% of the Moon is Illuminated
Jan 10
Full
Jan 16
Last Quarter
Jan 23
New
Jan 30
First Quarter
Feb 7
Full

Hourly Weather History & Observations

Time (CST) Temp. Windchill Dew Point Humidity Pressure Visibility Wind Dir Wind Speed Gust Speed Precip Events Conditions
12:15 AM 23.0 °F - 21.2 °F 93% 29.92 in 10.0 mi Calm Calm - N/A   Unknown
12:35 AM 26.6 °F - 23.0 °F 86% 29.92 in 10.0 mi Calm Calm - N/A   Unknown
12:55 AM 24.8 °F - 21.2 °F 86% 29.92 in 10.0 mi Calm Calm - N/A   Unknown
1:15 AM 23.0 °F - 21.2 °F 93% 29.93 in 10.0 mi Calm Calm - N/A   Unknown
1:35 AM 23.0 °F - 21.2 °F 93% 29.93 in 10.0 mi Calm Calm - N/A   Unknown
2:15 AM 21.2 °F - 19.4 °F 93% 29.93 in 10.0 mi Calm Calm - N/A   Unknown
2:35 AM 19.4 °F - 17.6 °F 93% 29.93 in 2.0 mi Calm Calm - N/A   Mist
2:55 AM 19.4 °F - 17.6 °F 93% 29.92 in 10.0 mi Calm Calm - N/A   Unknown
3:15 AM 17.6 °F - 14.0 °F 86% 29.93 in 10.0 mi Calm Calm - N/A   Unknown
3:35 AM 17.6 °F - 14.0 °F 86% 29.94 in 10.0 mi Calm Calm - N/A   Unknown
3:55 AM 19.4 °F - 17.6 °F 93% 29.92 in 10.0 mi Calm Calm - N/A   Unknown
4:15 AM 17.6 °F - 14.0 °F 86% 29.91 in 10.0 mi Calm Calm - N/A   Unknown
4:35 AM 17.6 °F - 14.0 °F 86% 29.91 in 10.0 mi Calm Calm - N/A   Unknown
4:55 AM 15.8 °F - 12.2 °F 86% 29.91 in 10.0 mi Calm Calm - N/A   Unknown
5:15 AM 15.8 °F - 12.2 °F 86% 29.91 in 10.0 mi Calm Calm - N/A   Unknown
5:35 AM 15.8 °F 10.2 °F 14.0 °F 93% 29.90 in 10.0 mi East 3.5 mph - N/A   Unknown
5:55 AM 17.6 °F - 14.0 °F 86% 29.89 in 10.0 mi Calm Calm - N/A   Unknown
6:15 AM 15.8 °F - 14.0 °F 93% 29.88 in 10.0 mi Calm Calm - N/A   Unknown
6:35 AM 15.8 °F - 12.2 °F 86% 29.89 in 10.0 mi Calm Calm - N/A   Unknown
6:55 AM 14.0 °F - 12.2 °F 93% 29.88 in 10.0 mi Calm Calm - N/A   Unknown
7:15 AM 14.0 °F - 12.2 °F 93% 29.88 in 10.0 mi Calm Calm - N/A   Unknown
7:35 AM 15.8 °F - 14.0 °F 93% 29.88 in 10.0 mi Calm Calm - N/A   Unknown
7:55 AM 17.6 °F - 15.8 °F 93% 29.88 in 10.0 mi Calm Calm - N/A   Unknown
8:15 AM 19.4 °F - 17.6 °F 93% 29.87 in 10.0 mi Calm Calm - N/A   Unknown
8:35 AM 23.0 °F - 21.2 °F 93% 29.87 in 10.0 mi Calm Calm - N/A   Unknown
8:55 AM 24.8 °F - 23.0 °F 93% 29.86 in 10.0 mi Calm Calm - N/A   Unknown
9:15 AM 26.6 °F 22.6 °F 24.8 °F 93% 29.86 in 10.0 mi South 3.5 mph - N/A   Unknown
9:35 AM 28.4 °F 24.6 °F 26.6 °F 93% 29.85 in 10.0 mi SSE 3.5 mph - N/A   Unknown
9:55 AM 30.2 °F 26.7 °F 28.4 °F 93% 29.85 in 10.0 mi South 3.5 mph - N/A   Unknown
10:15 AM 33.8 °F 30.8 °F 28.4 °F 81% 29.87 in 10.0 mi South 3.5 mph - N/A   Unknown
10:35 AM 33.8 °F 25.8 °F 26.6 °F 75% 29.85 in 10.0 mi South 10.4 mph - N/A   Unknown
10:55 AM 33.8 °F 27.7 °F 28.4 °F 81% 29.84 in 10.0 mi South 6.9 mph - N/A   Unknown
11:15 AM 35.6 °F 30.7 °F 28.4 °F 75% 29.84 in 10.0 mi SSW 5.8 mph - N/A   Unknown
11:35 AM 37.4 °F 32.8 °F 28.4 °F 70% 29.83 in 10.0 mi SSW 5.8 mph - N/A   Unknown
12:15 PM 41.0 °F 39.0 °F 28.4 °F 61% 29.78 in 10.0 mi South 3.5 mph - N/A   Unknown
12:35 PM 41.0 °F 35.8 °F 28.4 °F 61% 29.77 in 10.0 mi South 8.1 mph - N/A   Unknown
12:55 PM 42.8 °F 40.1 °F 28.4 °F 57% 29.76 in 10.0 mi SW 4.6 mph - N/A   Unknown
1:35 PM 44.6 °F 42.2 °F 30.2 °F 57% 29.74 in 10.0 mi SSW 4.6 mph - N/A   Unknown
1:55 PM 44.6 °F 41.4 °F 30.2 °F 57% 29.73 in 10.0 mi SSW 5.8 mph - N/A   Unknown
2:15 PM 44.6 °F 40.2 °F 30.2 °F 57% 29.72 in 10.0 mi SW 8.1 mph - N/A   Unknown
2:35 PM 44.6 °F - 30.2 °F 57% 29.72 in 10.0 mi Calm Calm - N/A   Unknown
2:55 PM 42.8 °F 41.1 °F 30.2 °F 61% 29.72 in 10.0 mi South 3.5 mph - N/A   Unknown
3:15 PM 42.8 °F 40.1 °F 30.2 °F 61% 29.72 in 10.0 mi South 4.6 mph - N/A   Unknown
3:35 PM 42.8 °F 40.1 °F 30.2 °F 61% 29.71 in 10.0 mi South 4.6 mph - N/A   Unknown
3:55 PM 41.0 °F 39.0 °F 30.2 °F 65% 29.71 in 10.0 mi SSW 3.5 mph - N/A   Unknown
4:15 PM 41.0 °F 39.0 °F 30.2 °F 65% 29.70 in 10.0 mi South 3.5 mph - N/A   Unknown
4:35 PM 39.2 °F 37.0 °F 30.2 °F 70% 29.70 in 10.0 mi South 3.5 mph - N/A   Unknown
4:55 PM 37.4 °F - 30.2 °F 75% 29.70 in 10.0 mi Calm Calm - N/A   Unknown
5:15 PM 35.6 °F - 30.2 °F 81% 29.70 in 10.0 mi Calm Calm - N/A   Unknown
5:35 PM 35.6 °F - 30.2 °F 81% 29.70 in 10.0 mi Calm Calm - N/A   Unknown
5:55 PM 35.6 °F - 30.2 °F 81% 29.70 in 10.0 mi Calm Calm - N/A   Unknown
6:15 PM 33.8 °F - 28.4 °F 81% 29.70 in 10.0 mi Calm Calm - N/A   Unknown
6:35 PM 32.0 °F - 26.6 °F 80% 29.70 in 10.0 mi Calm Calm - N/A   Unknown
6:55 PM 32.0 °F - 28.4 °F 87% 29.70 in 10.0 mi Calm Calm - N/A   Unknown
7:15 PM 30.2 °F 26.7 °F 28.4 °F 93% 29.70 in 10.0 mi South 3.5 mph - N/A   Unknown
7:35 PM 32.0 °F 27.5 °F 28.4 °F 87% 29.69 in 10.0 mi South 4.6 mph - N/A   Unknown
7:55 PM 32.0 °F 27.5 °F 28.4 °F 87% 29.69 in 10.0 mi South 4.6 mph - N/A   Unknown
8:15 PM 32.0 °F - 28.4 °F 87% 29.69 in 10.0 mi Calm Calm - N/A   Unknown
8:35 PM 30.2 °F - 26.6 °F 86% 29.69 in 10.0 mi Calm Calm - N/A   Unknown
8:55 PM 28.4 °F - 26.6 °F 93% 29.69 in 10.0 mi Calm Calm - N/A   Unknown
9:15 PM 28.4 °F - 26.6 °F 93% 29.68 in 10.0 mi Calm Calm - N/A   Unknown
9:35 PM 26.6 °F - 24.8 °F 93% 29.68 in 7.0 mi Calm Calm - N/A   Unknown
9:55 PM 26.6 °F - 26.6 °F 100% 29.67 in 7.0 mi Calm Calm - N/A   Unknown
10:15 PM 26.6 °F - 24.8 °F 93% 29.67 in 10.0 mi Calm Calm - N/A   Unknown
10:35 PM 26.6 °F - 24.8 °F 93% 29.66 in 10.0 mi Calm Calm - N/A   Unknown
10:55 PM 26.6 °F - 24.8 °F 93% 29.66 in 7.0 mi Calm Calm - N/A   Unknown
11:15 PM 28.4 °F - 26.6 °F 93% 29.65 in 7.0 mi Calm Calm - N/A   Unknown
11:35 PM 26.6 °F - 24.8 °F 93% 29.65 in 7.0 mi Calm Calm - N/A   Unknown
11:55 PM 26.6 °F - 24.8 °F 93% 29.65 in 7.0 mi Calm Calm - N/A   Unknown